createdAt,value
2019-04-25T00:02:34.326Z,60.40
2019-04-25T00:06:41.124Z,59.20
2019-04-25T00:10:47.647Z,59.50
2019-04-25T00:14:53.441Z,60.40
2019-04-25T00:18:59.558Z,59.30
2019-04-25T00:23:16.674Z,60.40
2019-04-25T00:27:23.765Z,59.40
2019-04-25T00:31:29.592Z,58.80
2019-04-25T00:35:35.345Z,58.60
2019-04-25T00:39:43.515Z,58.70
2019-04-25T00:43:48.307Z,62.70
2019-04-25T00:47:55.244Z,64.40
2019-04-25T00:52:01.956Z,66.10
2019-04-25T00:56:07.814Z,63.70
2019-04-25T01:00:44.925Z,60.50
2019-04-25T01:04:52.053Z,60.60
2019-04-25T01:08:58.193Z,59.50
2019-04-25T01:13:03.927Z,61.30
2019-04-25T01:17:11.445Z,60.00
2019-04-25T01:21:17.120Z,59.60
2019-04-25T01:25:23.422Z,59.80
2019-04-25T01:29:29.015Z,61.10
2019-04-25T01:33:34.819Z,59.70
2019-04-25T01:37:51.138Z,59.70
2019-04-25T01:42:14.745Z,60.00
2019-04-25T01:46:20.724Z,59.70
2019-04-25T01:50:26.644Z,59.90
2019-04-25T01:54:33.835Z,59.80
2019-04-25T01:58:41.252Z,59.80
2019-04-25T02:02:47.034Z,60.10
2019-04-25T02:06:54.358Z,59.90
2019-04-25T02:11:14.269Z,59.80
2019-04-25T02:15:23.454Z,61.10
2019-04-25T02:19:29.122Z,64.00
2019-04-25T02:23:34.791Z,61.10
2019-04-25T02:27:40.868Z,61.00
2019-04-25T02:31:46.773Z,60.30
2019-04-25T02:35:54.338Z,61.00
2019-04-25T02:40:01.444Z,60.50
2019-04-25T02:44:10.122Z,64.40
2019-04-25T02:48:40.645Z,67.80
2019-04-25T02:53:10.700Z,62.50
2019-04-25T02:57:16.389Z,61.10
2019-04-25T03:01:25.324Z,60.70
2019-04-25T03:05:29.370Z,60.90
2019-04-25T03:09:35.342Z,60.90
2019-04-25T03:13:44.130Z,60.70
2019-04-25T03:17:50.082Z,62.40
2019-04-25T03:21:58.632Z,61.50
2019-04-25T03:26:05.825Z,61.30
2019-04-25T03:30:14.932Z,61.20
2019-04-25T03:34:25.078Z,61.20
2019-04-25T03:38:28.130Z,61.10
2019-04-25T03:42:34.082Z,61.30
2019-04-25T03:46:39.857Z,61.20
2019-04-25T03:50:46.114Z,61.40
2019-04-25T03:54:53.338Z,61.40
2019-04-25T03:58:59.180Z,61.50
2019-04-25T04:03:06.749Z,62.20
2019-04-25T04:07:14.733Z,62.20
2019-04-25T04:11:20.468Z,62.00
2019-04-25T04:15:26.282Z,61.90
2019-04-25T04:19:34.061Z,62.10
2019-04-25T04:23:54.995Z,62.10
2019-04-25T04:28:01.600Z,62.60
2019-04-25T04:32:10.841Z,63.10
2019-04-25T04:36:19.011Z,63.50
2019-04-25T04:40:24.838Z,63.20
2019-04-25T04:44:30.463Z,63.30
2019-04-25T04:48:36.615Z,63.00
2019-04-25T04:52:43.907Z,63.90
2019-04-25T04:56:49.639Z,63.10
2019-04-25T05:00:55.198Z,63.20
2019-04-25T05:05:30.546Z,63.20
2019-04-25T05:09:36.331Z,63.40
2019-04-25T05:13:42.028Z,63.10
2019-04-25T05:17:48.679Z,63.30
2019-04-25T05:21:54.345Z,64.40
2019-04-25T05:26:00.096Z,64.90
2019-04-25T05:30:07.339Z,67.10
2019-04-25T05:34:14.517Z,68.80
2019-04-25T05:38:20.235Z,71.80
2019-04-25T05:42:44.313Z,71.30
2019-04-25T05:46:51.135Z,68.70
2019-04-25T05:50:56.758Z,63.20
2019-04-25T05:55:03.849Z,62.10
2019-04-25T05:59:09.678Z,57.60
2019-04-25T06:03:15.346Z,59.40
2019-04-25T06:07:21.487Z,57.60
2019-04-25T06:11:46.255Z,57.20
2019-04-25T06:15:53.575Z,55.60
2019-04-25T06:20:00.315Z,55.20
2019-04-25T06:24:20.486Z,56.80
2019-04-25T06:28:28.280Z,59.70
2019-04-25T06:32:35.491Z,57.20
2019-04-25T06:36:41.258Z,57.60
2019-04-25T06:40:47.467Z,53.40
2019-04-25T06:45:25.231Z,54.90
2019-04-25T06:49:36.412Z,55.80
2019-04-25T06:53:40.074Z,53.70
2019-04-25T06:57:45.717Z,53.40
2019-04-25T07:01:54.083Z,55.40
2019-04-25T07:05:59.670Z,56.50
2019-04-25T07:10:05.700Z,55.90
2019-04-25T07:14:11.416Z,55.90
2019-04-25T07:18:17.041Z,54.70
2019-04-25T07:22:23.916Z,55.70
2019-04-25T07:26:55.238Z,53.40
2019-04-25T07:31:15.589Z,50.80
2019-04-25T07:35:21.220Z,52.70
2019-04-25T07:39:27.498Z,52.00
2019-04-25T07:43:34.117Z,53.00
2019-04-25T07:47:40.953Z,52.60
2019-04-25T07:51:46.674Z,52.00
2019-04-25T07:55:52.331Z,52.60
2019-04-25T07:59:57.976Z,53.70
2019-04-25T08:04:04.611Z,49.10
2019-04-25T08:08:11.254Z,47.90
2019-04-25T08:12:17.007Z,49.20
2019-04-25T08:16:24.412Z,50.80
2019-04-25T08:20:30.804Z,50.10
2019-04-25T08:24:37.290Z,52.20
2019-04-25T08:28:54.053Z,49.10
2019-04-25T08:32:50.272Z,50.40
2019-04-25T08:36:56.975Z,50.80
2019-04-25T08:41:04.056Z,51.20
2019-04-25T08:45:09.767Z,48.30
2019-04-25T08:49:34.903Z,47.90
2019-04-25T08:53:48.473Z,47.60
2019-04-25T08:58:06.040Z,48.40
2019-04-25T09:02:29.096Z,48.30
2019-04-25T09:06:36.489Z,48.30
2019-04-25T09:10:43.711Z,47.10
2019-04-25T09:14:50.099Z,47.80
2019-04-25T09:18:55.983Z,47.50
2019-04-25T09:23:01.581Z,46.00
2019-04-25T09:27:07.231Z,48.40
2019-04-25T09:31:13.982Z,45.90
2019-04-25T09:35:20.218Z,45.70
2019-04-25T09:39:33.800Z,42.80
2019-04-25T09:43:40.342Z,46.40
2019-04-25T09:47:47.807Z,42.40
2019-04-25T09:52:03.381Z,47.00
2019-04-25T09:56:19.577Z,43.80
2019-04-25T10:00:47.661Z,42.70
2019-04-25T10:04:54.755Z,41.40
2019-04-25T10:09:00.799Z,42.50
2019-04-25T10:13:09.199Z,47.30
2019-04-25T10:17:14.807Z,37.80
2019-04-25T10:21:20.898Z,44.70
2019-04-25T10:25:26.502Z,45.80
2019-04-25T10:29:41.613Z,41.60
2019-04-25T10:33:39.752Z,42.00
2019-04-25T10:37:46.545Z,46.00
2019-04-25T10:41:53.938Z,41.30
2019-04-25T10:45:59.545Z,45.40
2019-04-25T10:50:05.620Z,45.60
2019-04-25T10:54:11.270Z,46.60
2019-04-25T10:58:16.967Z,43.00
2019-04-25T11:02:23.610Z,42.70
2019-04-25T11:06:29.885Z,43.10
2019-04-25T11:10:35.510Z,41.00
2019-04-25T11:14:42.176Z,44.20
2019-04-25T11:18:47.880Z,41.60
2019-04-25T11:22:53.624Z,36.70
2019-04-25T11:26:59.205Z,40.90
2019-04-25T11:31:06.727Z,42.50
2019-04-25T11:35:13.961Z,35.20
2019-04-25T11:39:41.802Z,33.90
2019-04-25T11:43:48.923Z,37.60
2019-04-25T11:47:55.315Z,39.30
2019-04-25T11:52:03.106Z,33.80
2019-04-25T11:56:09.351Z,34.50
2019-04-25T12:00:22.190Z,34.40
2019-04-25T12:04:24.345Z,40.60
2019-04-25T12:08:30.042Z,32.80
2019-04-25T12:12:37.158Z,40.90
2019-04-25T12:16:46.134Z,36.40
2019-04-25T12:20:51.011Z,34.50
2019-04-25T12:24:56.609Z,35.70
2019-04-25T12:29:04.249Z,33.80
2019-04-25T12:33:19.192Z,35.10
2019-04-25T12:37:16.800Z,34.80
2019-04-25T12:41:22.421Z,41.10
2019-04-25T12:45:46.070Z,33.30
2019-04-25T12:49:54.363Z,38.30
2019-04-25T12:53:59.849Z,42.20
2019-04-25T12:58:05.909Z,39.50
2019-04-25T13:02:12.988Z,34.60
2019-04-25T13:06:18.950Z,43.10
2019-04-25T13:10:24.643Z,37.60
2019-04-25T13:14:30.253Z,38.10
2019-04-25T13:18:35.876Z,33.20
2019-04-25T13:22:42.942Z,38.70
2019-04-25T13:26:58.577Z,38.70
2019-04-25T13:31:23.380Z,30.50
2019-04-25T13:35:34.643Z,40.10
2019-04-25T13:39:40.338Z,30.10
2019-04-25T13:43:46.135Z,31.00
2019-04-25T13:47:51.763Z,42.20
2019-04-25T13:51:57.386Z,31.30
2019-04-25T13:56:04.868Z,30.70
2019-04-25T14:00:10.761Z,31.60
2019-04-25T14:04:16.717Z,29.70
2019-04-25T14:08:24.420Z,30.90
2019-04-25T14:12:30.319Z,29.10
2019-04-25T14:17:06.730Z,29.90
2019-04-25T14:25:28.272Z,29.10
2019-04-25T14:29:35.705Z,35.00
2019-04-25T14:33:41.291Z,29.60
2019-04-25T14:37:47.027Z,27.90
2019-04-25T14:41:53.021Z,29.30
2019-04-25T14:45:59.434Z,29.10
2019-04-25T14:50:05.443Z,34.30
2019-04-25T14:54:19.187Z,35.40
2019-04-25T14:58:26.140Z,29.20
2019-04-25T15:02:34.194Z,33.60
2019-04-25T15:06:40.055Z,30.20
2019-04-25T15:10:48.319Z,33.90
2019-04-25T15:14:53.454Z,35.50
2019-04-25T15:19:00.298Z,33.90
2019-04-25T15:23:06.005Z,33.40
2019-04-25T15:27:11.758Z,34.90
2019-04-25T15:31:18.552Z,30.40
2019-04-25T15:35:27.993Z,32.70
2019-04-25T15:40:01.488Z,31.40
2019-04-25T15:44:21.244Z,33.90
2019-04-25T15:48:27.596Z,30.00
2019-04-25T15:52:34.349Z,33.00
2019-04-25T15:56:41.529Z,27.30
2019-04-25T16:00:56.444Z,29.80
2019-04-25T16:05:02.050Z,31.40
2019-04-25T16:09:10.421Z,32.50
2019-04-25T16:13:17.544Z,27.80
2019-04-25T16:17:23.266Z,32.80
2019-04-25T16:21:29.306Z,30.00
2019-04-25T16:25:35.504Z,30.50
2019-04-25T16:29:41.125Z,32.60
2019-04-25T16:33:48.357Z,30.40
2019-04-25T16:37:53.974Z,32.70
2019-04-25T16:41:59.645Z,27.00
2019-04-25T16:46:05.359Z,34.60
2019-04-25T16:50:11.402Z,31.60
2019-04-25T16:54:17.079Z,30.10
2019-04-25T16:58:23.753Z,31.90
2019-04-25T17:02:37.469Z,28.20
2019-04-25T17:06:41.052Z,34.10
2019-04-25T17:10:46.727Z,32.60
2019-04-25T17:15:09.918Z,31.40
2019-04-25T17:19:23.336Z,35.00
2019-04-25T17:23:30.082Z,36.60
2019-04-25T17:27:39.135Z,35.40
2019-04-25T17:31:52.676Z,33.40
2019-04-25T17:36:12.666Z,32.00
2019-04-25T17:40:21.234Z,37.20
2019-04-25T17:44:26.913Z,36.50
2019-04-25T17:48:32.927Z,37.10
2019-04-25T17:52:38.753Z,36.10
2019-04-25T17:56:44.755Z,35.40
2019-04-25T18:00:50.652Z,34.40
2019-04-25T18:04:56.293Z,38.20
2019-04-25T18:09:02.213Z,37.20
2019-04-25T18:13:09.724Z,34.90
2019-04-25T18:17:16.062Z,36.30
2019-04-25T18:21:24.166Z,39.10
2019-04-25T18:25:48.706Z,37.00
2019-04-25T18:29:55.267Z,34.20
2019-04-25T18:34:05.012Z,38.20
2019-04-25T18:38:29.810Z,39.70
2019-04-25T18:43:03.058Z,38.10
2019-04-25T18:47:08.766Z,39.80
2019-04-25T18:51:14.811Z,39.80
2019-04-25T18:55:26.826Z,39.90
2019-04-25T18:59:48.194Z,38.60
2019-04-25T19:04:05.037Z,40.20
2019-04-25T19:08:10.910Z,38.90
2019-04-25T19:12:16.755Z,41.80
2019-04-25T19:16:22.587Z,40.50
2019-04-25T19:20:29.414Z,42.40
2019-04-25T19:24:35.393Z,40.30
2019-04-25T19:28:41.142Z,42.70
2019-04-25T19:32:49.044Z,41.10
2019-04-25T19:36:54.837Z,42.30
2019-04-25T19:41:18.565Z,41.40
2019-04-25T19:45:24.403Z,42.50
2019-04-25T19:49:30.267Z,42.10
2019-04-25T19:53:41.769Z,39.60
2019-04-25T19:57:48.238Z,45.30
2019-04-25T20:01:55.635Z,45.00
2019-04-25T20:06:23.608Z,42.80
2019-04-25T20:10:53.453Z,43.60
2019-04-25T20:14:59.381Z,44.00
2019-04-25T20:19:09.343Z,43.50
2019-04-25T20:23:14.009Z,44.00
2019-04-25T20:27:20.206Z,43.70
2019-04-25T20:31:26.036Z,44.10
2019-04-25T20:35:31.809Z,43.60
2019-04-25T20:39:37.601Z,44.20
2019-04-25T20:43:43.253Z,44.40
2019-04-25T20:47:49.988Z,44.60
2019-04-25T20:51:56.674Z,44.50
2019-04-25T20:56:02.502Z,43.00
2019-04-25T21:00:08.788Z,46.90
2019-04-25T21:04:32.647Z,43.80
2019-04-25T21:08:38.331Z,48.50
2019-04-25T21:12:44.071Z,47.80
2019-04-25T21:16:57.403Z,48.00
2019-04-25T21:21:04.228Z,46.50
2019-04-25T21:25:09.925Z,45.50
2019-04-25T21:29:15.556Z,45.30
2019-04-25T21:33:21.612Z,48.80
2019-04-25T21:37:27.624Z,50.80
2019-04-25T21:41:53.411Z,45.10
2019-04-25T21:46:00.577Z,46.50
2019-04-25T21:50:07.942Z,48.70
2019-04-25T21:54:14.468Z,48.50
2019-04-25T21:58:20.508Z,45.10
2019-04-25T22:02:26.890Z,50.20
2019-04-25T22:06:33.116Z,48.20
2019-04-25T22:10:38.772Z,47.80
2019-04-25T22:14:44.401Z,44.80
2019-04-25T22:18:50.078Z,46.60
2019-04-25T22:22:56.179Z,50.50
2019-04-25T22:27:05.439Z,48.60
2019-04-25T22:31:15.500Z,48.20
2019-04-25T22:35:38.987Z,48.00
2019-04-25T22:39:44.965Z,48.20
2019-04-25T22:43:54.493Z,48.20
2019-04-25T22:48:00.540Z,48.30
2019-04-25T22:52:09.135Z,48.50
2019-04-25T22:56:14.817Z,46.00
2019-04-25T23:00:28.524Z,45.40
2019-04-25T23:05:12.097Z,53.10
2019-04-25T23:09:13.001Z,50.20
2019-04-25T23:13:19.794Z,49.50
2019-04-25T23:17:25.816Z,49.50
2019-04-25T23:21:31.567Z,49.50
2019-04-25T23:26:03.571Z,49.60
2019-04-25T23:30:12.238Z,49.60
2019-04-25T23:34:18.188Z,49.80
2019-04-25T23:38:23.878Z,49.90
2019-04-25T23:42:29.494Z,49.90
2019-04-25T23:46:35.515Z,50.10
2019-04-25T23:50:41.168Z,50.20
2019-04-25T23:54:47.431Z,50.30
2019-04-25T23:58:53.410Z,50.50
